sensor_id;sensor_type;location;lat;lon;timestamp;pressure;altitude;pressure_sealevel;temperature;humidity
21730;BME280;11027;51.030;13.812;2023-01-31T00:01:31;100132.00;;;3.91;79.27
21730;BME280;11027;51.030;13.812;2023-01-31T00:04:00;100147.88;;;3.85;78.30
21730;BME280;11027;51.030;13.812;2023-01-31T00:06:31;100137.34;;;3.81;78.17
21730;BME280;11027;51.030;13.812;2023-01-31T00:08:58;100124.88;;;3.80;77.99
21730;BME280;11027;51.030;13.812;2023-01-31T00:11:25;100114.94;;;3.81;77.87
21730;BME280;11027;51.030;13.812;2023-01-31T00:13:51;100120.47;;;3.79;77.81
21730;BME280;11027;51.030;13.812;2023-01-31T00:16:17;100135.94;;;3.77;77.79
21730;BME280;11027;51.030;13.812;2023-01-31T00:18:43;100130.53;;;3.77;77.87
21730;BME280;11027;51.030;13.812;2023-01-31T00:21:19;100148.44;;;3.78;77.58
21730;BME280;11027;51.030;13.812;2023-01-31T00:23:46;100140.75;;;3.84;77.54
21730;BME280;11027;51.030;13.812;2023-01-31T00:26:16;100151.28;;;3.87;77.27
21730;BME280;11027;51.030;13.812;2023-01-31T00:28:42;100141.94;;;3.91;77.10
21730;BME280;11027;51.030;13.812;2023-01-31T00:31:09;100141.66;;;3.94;76.87
21730;BME280;11027;51.030;13.812;2023-01-31T00:33:36;100144.19;;;3.95;76.84
21730;BME280;11027;51.030;13.812;2023-01-31T00:36:06;100151.91;;;4.00;76.53
21730;BME280;11027;51.030;13.812;2023-01-31T00:38:32;100145.38;;;4.03;76.56
21730;BME280;11027;51.030;13.812;2023-01-31T00:40:58;100156.03;;;4.04;76.49
21730;BME280;11027;51.030;13.812;2023-01-31T00:43:23;100158.41;;;4.07;76.23
21730;BME280;11027;51.030;13.812;2023-01-31T00:45:49;100156.44;;;4.09;76.37
21730;BME280;11027;51.030;13.812;2023-01-31T00:48:14;100170.63;;;4.11;76.12
21730;BME280;11027;51.030;13.812;2023-01-31T00:50:39;100168.78;;;4.12;76.05
21730;BME280;11027;51.030;13.812;2023-01-31T00:53:05;100174.63;;;4.17;76.27
21730;BME280;11027;51.030;13.812;2023-01-31T00:55:30;100193.63;;;4.15;76.08
21730;BME280;11027;51.030;13.812;2023-01-31T00:57:56;100192.66;;;4.16;76.04
21730;BME280;11027;51.030;13.812;2023-01-31T01:00:21;100186.53;;;4.14;76.09
21730;BME280;11027;51.030;13.812;2023-01-31T01:02:46;100184.25;;;4.10;76.05
21730;BME280;11027;51.030;13.812;2023-01-31T01:05:12;100185.94;;;4.01;76.23
21730;BME280;11027;51.030;13.812;2023-01-31T01:07:38;100205.63;;;3.92;76.25
21730;BME280;11027;51.030;13.812;2023-01-31T01:10:04;100188.72;;;3.90;76.43
21730;BME280;11027;51.030;13.812;2023-01-31T01:12:30;100188.88;;;3.88;76.40
21730;BME280;11027;51.030;13.812;2023-01-31T01:14:55;100195.66;;;3.83;75.92
21730;BME280;11027;51.030;13.812;2023-01-31T01:17:20;100233.53;;;3.81;75.82
21730;BME280;11027;51.030;13.812;2023-01-31T01:19:45;100206.53;;;3.71;75.33
21730;BME280;11027;51.030;13.812;2023-01-31T01:22:11;100214.31;;;3.65;75.33
21730;BME280;11027;51.030;13.812;2023-01-31T01:24:43;100216.41;;;3.61;75.38
21730;BME280;11027;51.030;13.812;2023-01-31T01:27:09;100234.19;;;3.64;75.23
21730;BME280;11027;51.030;13.812;2023-01-31T01:29:34;100218.41;;;3.59;74.84
21730;BME280;11027;51.030;13.812;2023-01-31T01:32:00;100218.00;;;3.64;74.74
21730;BME280;11027;51.030;13.812;2023-01-31T01:34:25;100228.19;;;3.60;74.60
21730;BME280;11027;51.030;13.812;2023-01-31T01:36:50;100242.63;;;3.59;74.85
21730;BME280;11027;51.030;13.812;2023-01-31T01:39:16;100234.84;;;3.56;75.07
21730;BME280;11027;51.030;13.812;2023-01-31T01:41:42;100244.91;;;3.54;75.60
21730;BME280;11027;51.030;13.812;2023-01-31T01:47:39;100255.19;;;3.49;77.01
21730;BME280;11027;51.030;13.812;2023-01-31T01:50:29;100254.91;;;3.42;77.35
21730;BME280;11027;51.030;13.812;2023-01-31T01:53:17;100273.81;;;3.31;78.62
21730;BME280;11027;51.030;13.812;2023-01-31T01:55:45;100263.56;;;3.25;79.55
21730;BME280;11027;51.030;13.812;2023-01-31T01:58:21;100262.72;;;3.24;79.97
21730;BME280;11027;51.030;13.812;2023-01-31T02:00:48;100271.38;;;3.28;80.06
21730;BME280;11027;51.030;13.812;2023-01-31T02:03:14;100280.06;;;3.31;80.22
21730;BME280;11027;51.030;13.812;2023-01-31T02:05:50;100283.72;;;3.30;80.05
21730;BME280;11027;51.030;13.812;2023-01-31T02:08:19;100292.53;;;3.32;80.10
21730;BME280;11027;51.030;13.812;2023-01-31T02:10:55;100297.66;;;3.35;80.46
21730;BME280;11027;51.030;13.812;2023-01-31T02:13:22;100279.53;;;3.37;80.72
21730;BME280;11027;51.030;13.812;2023-01-31T02:15:47;100279.72;;;3.46;80.98
21730;BME280;11027;51.030;13.812;2023-01-31T02:18:13;100265.97;;;3.49;80.67
21730;BME280;11027;51.030;13.812;2023-01-31T02:21:29;100273.66;;;3.53;80.50
21730;BME280;11027;51.030;13.812;2023-01-31T02:24:05;100279.91;;;3.54;80.39
21730;BME280;11027;51.030;13.812;2023-01-31T02:26:55;100285.03;;;3.57;80.39
21730;BME280;11027;51.030;13.812;2023-01-31T02:37:42;100325.91;;;3.62;79.62
21730;BME280;11027;51.030;13.812;2023-01-31T02:40:27;100313.88;;;3.66;79.08
21730;BME280;11027;51.030;13.812;2023-01-31T02:43:18;100325.09;;;3.71;78.80
21730;BME280;11027;51.030;13.812;2023-01-31T02:46:10;100326.53;;;3.75;78.41
21730;BME280;11027;51.030;13.812;2023-01-31T02:48:56;100333.19;;;3.71;78.12
21730;BME280;11027;51.030;13.812;2023-01-31T02:51:34;100322.69;;;3.68;77.86
21730;BME280;11027;51.030;13.812;2023-01-31T02:54:08;100328.78;;;3.70;77.73
21730;BME280;11027;51.030;13.812;2023-01-31T02:56:36;100332.22;;;3.72;77.66
21730;BME280;11027;51.030;13.812;2023-01-31T02:59:08;100344.44;;;3.76;77.29
21730;BME280;11027;51.030;13.812;2023-01-31T03:01:38;100351.78;;;3.74;76.81
21730;BME280;11027;51.030;13.812;2023-01-31T03:04:06;100357.19;;;3.74;76.36
21730;BME280;11027;51.030;13.812;2023-01-31T03:09:23;100377.31;;;3.70;75.74
21730;BME280;11027;51.030;13.812;2023-01-31T03:20:33;100389.00;;;3.80;76.06
21730;BME280;11027;51.030;13.812;2023-01-31T03:23:05;100389.25;;;3.77;76.05
21730;BME280;11027;51.030;13.812;2023-01-31T03:25:34;100394.91;;;3.74;76.37
21730;BME280;11027;51.030;13.812;2023-01-31T03:28:05;100401.56;;;3.70;76.65
21730;BME280;11027;51.030;13.812;2023-01-31T03:30:42;100402.53;;;3.69;76.87
21730;BME280;11027;51.030;13.812;2023-01-31T03:33:23;100416.41;;;3.65;77.34
21730;BME280;11027;51.030;13.812;2023-01-31T03:35:56;100407.72;;;3.61;77.91
21730;BME280;11027;51.030;13.812;2023-01-31T03:38:42;100416.91;;;3.58;78.38
21730;BME280;11027;51.030;13.812;2023-01-31T03:41:15;100416.59;;;3.52;79.04
21730;BME280;11027;51.030;13.812;2023-01-31T03:43:52;100436.91;;;3.56;79.48
21730;BME280;11027;51.030;13.812;2023-01-31T03:46:26;100453.31;;;3.53;79.54
21730;BME280;11027;51.030;13.812;2023-01-31T03:48:56;100423.78;;;3.51;79.84
21730;BME280;11027;51.030;13.812;2023-01-31T03:51:26;100449.03;;;3.50;80.01
21730;BME280;11027;51.030;13.812;2023-01-31T03:54:03;100464.88;;;3.44;80.52
21730;BME280;11027;51.030;13.812;2023-01-31T03:56:42;100434.63;;;3.40;81.01
21730;BME280;11027;51.030;13.812;2023-01-31T03:59:13;100451.91;;;3.37;81.37
21730;BME280;11027;51.030;13.812;2023-01-31T04:01:43;100435.03;;;3.24;82.13
21730;BME280;11027;51.030;13.812;2023-01-31T04:04:14;100425.75;;;3.17;82.26
21730;BME280;11027;51.030;13.812;2023-01-31T04:06:40;100444.75;;;3.15;82.87
21730;BME280;11027;51.030;13.812;2023-01-31T04:09:06;100431.28;;;3.15;82.95
21730;BME280;11027;51.030;13.812;2023-01-31T04:11:39;100443.13;;;3.13;83.21
21730;BME280;11027;51.030;13.812;2023-01-31T04:14:04;100431.91;;;3.08;83.38
21730;BME280;11027;51.030;13.812;2023-01-31T04:16:30;100449.03;;;3.07;83.43
21730;BME280;11027;51.030;13.812;2023-01-31T04:18:55;100450.75;;;3.08;83.55
21730;BME280;11027;51.030;13.812;2023-01-31T04:21:21;100449.03;;;3.07;83.63
21730;BME280;11027;51.030;13.812;2023-01-31T04:23:46;100449.63;;;3.10;83.58
21730;BME280;11027;51.030;13.812;2023-01-31T04:26:11;100464.44;;;3.16;83.55
21730;BME280;11027;51.030;13.812;2023-01-31T04:28:36;100444.84;;;3.14;83.58
21730;BME280;11027;51.030;13.812;2023-01-31T04:31:02;100447.66;;;3.12;83.48
21730;BME280;11027;51.030;13.812;2023-01-31T04:33:27;100449.75;;;3.09;84.02
21730;BME280;11027;51.030;13.812;2023-01-31T04:35:52;100461.50;;;3.08;84.54
21730;BME280;11027;51.030;13.812;2023-01-31T04:38:17;100453.69;;;3.05;84.82
21730;BME280;11027;51.030;13.812;2023-01-31T04:40:42;100454.66;;;3.04;84.99
21730;BME280;11027;51.030;13.812;2023-01-31T04:43:08;100456.63;;;3.02;84.94
21730;BME280;11027;51.030;13.812;2023-01-31T04:45:33;100462.25;;;2.98;85.13
21730;BME280;11027;51.030;13.812;2023-01-31T04:47:58;100458.59;;;2.99;85.33
21730;BME280;11027;51.030;13.812;2023-01-31T04:50:23;100460.19;;;3.02;85.47
21730;BME280;11027;51.030;13.812;2023-01-31T04:52:50;100457.81;;;3.09;85.27
21730;BME280;11027;51.030;13.812;2023-01-31T04:55:15;100453.78;;;3.14;85.05
21730;BME280;11027;51.030;13.812;2023-01-31T04:57:41;100455.63;;;3.14;84.86
21730;BME280;11027;51.030;13.812;2023-01-31T05:00:07;100458.78;;;3.19;84.60
21730;BME280;11027;51.030;13.812;2023-01-31T05:02:32;100453.78;;;3.26;84.32
21730;BME280;11027;51.030;13.812;2023-01-31T05:04:57;100463.31;;;3.30;83.44
21730;BME280;11027;51.030;13.812;2023-01-31T05:07:22;100465.88;;;3.31;82.61
21730;BME280;11027;51.030;13.812;2023-01-31T05:09:48;100451.19;;;3.35;82.26
21730;BME280;11027;51.030;13.812;2023-01-31T05:12:13;100460.09;;;3.36;81.55
21730;BME280;11027;51.030;13.812;2023-01-31T05:14:38;100466.09;;;3.39;81.36
21730;BME280;11027;51.030;13.812;2023-01-31T05:17:04;100461.56;;;3.40;80.99
21730;BME280;11027;51.030;13.812;2023-01-31T05:19:29;100473.53;;;3.47;80.59
21730;BME280;11027;51.030;13.812;2023-01-31T05:21:54;100462.00;;;3.45;80.31
21730;BME280;11027;51.030;13.812;2023-01-31T05:24:30;100468.13;;;3.47;80.13
21730;BME280;11027;51.030;13.812;2023-01-31T05:26:56;100471.44;;;3.51;79.90
21730;BME280;11027;51.030;13.812;2023-01-31T05:29:30;100477.81;;;3.50;79.66
21730;BME280;11027;51.030;13.812;2023-01-31T05:31:57;100481.03;;;3.44;79.58
21730;BME280;11027;51.030;13.812;2023-01-31T05:34:23;100479.78;;;3.48;79.45
21730;BME280;11027;51.030;13.812;2023-01-31T05:36:52;100485.75;;;3.51;79.39
21730;BME280;11027;51.030;13.812;2023-01-31T05:39:17;100478.53;;;3.52;79.08
21730;BME280;11027;51.030;13.812;2023-01-31T05:41:43;100482.94;;;3.53;79.09
21730;BME280;11027;51.030;13.812;2023-01-31T05:44:08;100487.09;;;3.57;78.96
21730;BME280;11027;51.030;13.812;2023-01-31T05:46:34;100473.38;;;3.60;79.02
21730;BME280;11027;51.030;13.812;2023-01-31T05:49:00;100479.38;;;3.64;78.96
21730;BME280;11027;51.030;13.812;2023-01-31T05:51:25;100480.47;;;3.61;78.57
21730;BME280;11027;51.030;13.812;2023-01-31T05:53:50;100469.94;;;3.58;78.78
21730;BME280;11027;51.030;13.812;2023-01-31T05:56:16;100478.16;;;3.56;79.13
21730;BME280;11027;51.030;13.812;2023-01-31T05:58:41;100501.06;;;3.51;79.68
21730;BME280;11027;51.030;13.812;2023-01-31T06:01:07;100478.78;;;3.49;79.94
21730;BME280;11027;51.030;13.812;2023-01-31T06:03:32;100479.41;;;3.52;80.31
21730;BME280;11027;51.030;13.812;2023-01-31T06:05:58;100473.63;;;3.57;80.45
21730;BME280;11027;51.030;13.812;2023-01-31T06:08:23;100487.81;;;3.59;80.48
21730;BME280;11027;51.030;13.812;2023-01-31T06:10:48;100498.59;;;3.59;80.83
21730;BME280;11027;51.030;13.812;2023-01-31T06:13:14;100497.84;;;3.57;81.16
21730;BME280;11027;51.030;13.812;2023-01-31T06:15:42;100475.59;;;3.55;81.48
21730;BME280;11027;51.030;13.812;2023-01-31T06:18:08;100475.13;;;3.50;81.45
21730;BME280;11027;51.030;13.812;2023-01-31T06:20:33;100492.03;;;3.52;81.50
21730;BME280;11027;51.030;13.812;2023-01-31T06:22:59;100485.16;;;3.48;81.39
21730;BME280;11027;51.030;13.812;2023-01-31T06:25:25;100500.34;;;3.49;81.45
21730;BME280;11027;51.030;13.812;2023-01-31T06:27:50;100489.56;;;3.49;81.32
21730;BME280;11027;51.030;13.812;2023-01-31T06:30:16;100502.78;;;3.52;81.24
21730;BME280;11027;51.030;13.812;2023-01-31T06:32:41;100488.59;;;3.50;81.13
21730;BME280;11027;51.030;13.812;2023-01-31T06:35:06;100490.06;;;3.54;81.11
21730;BME280;11027;51.030;13.812;2023-01-31T06:37:32;100490.38;;;3.60;80.93
21730;BME280;11027;51.030;13.812;2023-01-31T06:39:57;100503.00;;;3.60;80.59
21730;BME280;11027;51.030;13.812;2023-01-31T06:42:23;100514.75;;;3.59;80.53
21730;BME280;11027;51.030;13.812;2023-01-31T06:44:48;100511.34;;;3.57;80.49
21730;BME280;11027;51.030;13.812;2023-01-31T06:47:14;100518.44;;;3.58;80.41
21730;BME280;11027;51.030;13.812;2023-01-31T06:49:39;100515.25;;;3.53;81.04
21730;BME280;11027;51.030;13.812;2023-01-31T06:52:04;100514.53;;;3.51;81.95
21730;BME280;11027;51.030;13.812;2023-01-31T06:54:30;100527.53;;;3.46;82.61
21730;BME280;11027;51.030;13.812;2023-01-31T06:56:55;100519.97;;;3.39;83.26
21730;BME280;11027;51.030;13.812;2023-01-31T06:59:20;100514.09;;;3.34;83.39
21730;BME280;11027;51.030;13.812;2023-01-31T07:01:46;100516.31;;;3.29;83.79
21730;BME280;11027;51.030;13.812;2023-01-31T07:04:11;100515.09;;;3.33;83.84
21730;BME280;11027;51.030;13.812;2023-01-31T07:06:36;100524.13;;;3.32;83.72
21730;BME280;11027;51.030;13.812;2023-01-31T07:09:02;100530.13;;;3.36;83.90
21730;BME280;11027;51.030;13.812;2023-01-31T07:11:27;100529.00;;;3.38;83.54
21730;BME280;11027;51.030;13.812;2023-01-31T07:13:52;100528.78;;;3.42;83.23
21730;BME280;11027;51.030;13.812;2023-01-31T07:16:18;100538.31;;;3.46;83.17
21730;BME280;11027;51.030;13.812;2023-01-31T07:18:43;100544.44;;;3.48;82.75
21730;BME280;11027;51.030;13.812;2023-01-31T07:21:09;100541.25;;;3.54;82.74
21730;BME280;11027;51.030;13.812;2023-01-31T07:23:35;100544.28;;;3.60;82.31
21730;BME280;11027;51.030;13.812;2023-01-31T07:26:03;100531.13;;;3.67;81.93
21730;BME280;11027;51.030;13.812;2023-01-31T07:28:28;100544.63;;;3.67;81.51
21730;BME280;11027;51.030;13.812;2023-01-31T07:30:53;100532.13;;;3.66;81.47
21730;BME280;11027;51.030;13.812;2023-01-31T07:33:18;100532.59;;;3.71;81.15
21730;BME280;11027;51.030;13.812;2023-01-31T07:35:44;100533.31;;;3.73;80.91
21730;BME280;11027;51.030;13.812;2023-01-31T07:38:09;100537.63;;;3.76;80.65
21730;BME280;11027;51.030;13.812;2023-01-31T07:40:34;100541.63;;;3.81;80.42
21730;BME280;11027;51.030;13.812;2023-01-31T07:43:00;100541.63;;;3.81;80.03
21730;BME280;11027;51.030;13.812;2023-01-31T07:45:25;100555.09;;;3.81;79.52
21730;BME280;11027;51.030;13.812;2023-01-31T07:47:51;100547.00;;;3.81;79.36
21730;BME280;11027;51.030;13.812;2023-01-31T07:50:17;100561.22;;;3.84;79.33
21730;BME280;11027;51.030;13.812;2023-01-31T07:52:42;100548.75;;;3.83;79.19
21730;BME280;11027;51.030;13.812;2023-01-31T07:55:08;100555.25;;;3.80;79.30
21730;BME280;11027;51.030;13.812;2023-01-31T07:57:33;100555.09;;;3.81;79.54
21730;BME280;11027;51.030;13.812;2023-01-31T07:59:58;100548.75;;;3.83;79.58
21730;BME280;11027;51.030;13.812;2023-01-31T08:02:24;100557.28;;;3.88;79.54
21730;BME280;11027;51.030;13.812;2023-01-31T08:05:08;100551.16;;;3.86;79.22
21730;BME280;11027;51.030;13.812;2023-01-31T08:07:35;100562.00;;;3.74;79.89
21730;BME280;11027;51.030;13.812;2023-01-31T08:10:00;100567.91;;;3.68;80.41
21730;BME280;11027;51.030;13.812;2023-01-31T08:12:25;100546.34;;;3.68;80.97
21730;BME280;11027;51.030;13.812;2023-01-31T08:14:51;100534.31;;;3.72;81.18
21730;BME280;11027;51.030;13.812;2023-01-31T08:17:16;100536.50;;;3.78;81.05
21730;BME280;11027;51.030;13.812;2023-01-31T08:19:42;100539.66;;;3.84;80.60
21730;BME280;11027;51.030;13.812;2023-01-31T08:22:07;100541.00;;;3.89;79.58
21730;BME280;11027;51.030;13.812;2023-01-31T08:24:32;100542.41;;;4.05;79.59
21730;BME280;11027;51.030;13.812;2023-01-31T08:26:58;100534.84;;;4.19;78.42
21730;BME280;11027;51.030;13.812;2023-01-31T08:29:24;100535.00;;;4.39;77.68
21730;BME280;11027;51.030;13.812;2023-01-31T08:31:50;100526.25;;;4.47;75.29
21730;BME280;11027;51.030;13.812;2023-01-31T08:34:16;100528.66;;;4.50;75.02
21730;BME280;11027;51.030;13.812;2023-01-31T08:36:41;100548.69;;;4.47;73.92
21730;BME280;11027;51.030;13.812;2023-01-31T08:39:07;100536.44;;;4.43;73.68
21730;BME280;11027;51.030;13.812;2023-01-31T08:41:33;100529.31;;;4.42;73.42
21730;BME280;11027;51.030;13.812;2023-01-31T08:43:58;100536.69;;;4.40;73.36
21730;BME280;11027;51.030;13.812;2023-01-31T08:46:26;100533.81;;;4.32;72.60
21730;BME280;11027;51.030;13.812;2023-01-31T08:48:53;100550.13;;;4.30;72.82
21730;BME280;11027;51.030;13.812;2023-01-31T08:51:19;100534.06;;;4.29;72.57
21730;BME280;11027;51.030;13.812;2023-01-31T08:53:44;100547.44;;;4.30;72.35
21730;BME280;11027;51.030;13.812;2023-01-31T08:56:11;100536.97;;;4.37;72.23
21730;BME280;11027;51.030;13.812;2023-01-31T08:58:38;100526.78;;;4.40;71.66
21730;BME280;11027;51.030;13.812;2023-01-31T09:01:07;100554.19;;;4.46;70.88
21730;BME280;11027;51.030;13.812;2023-01-31T09:03:33;100539.16;;;4.43;70.71
21730;BME280;11027;51.030;13.812;2023-01-31T09:05:59;100529.91;;;4.46;70.73
21730;BME280;11027;51.030;13.812;2023-01-31T09:08:24;100530.78;;;4.46;70.65
21730;BME280;11027;51.030;13.812;2023-01-31T09:10:53;100537.06;;;4.56;70.78
21730;BME280;11027;51.030;13.812;2023-01-31T09:13:19;100515.50;;;4.56;69.74
21730;BME280;11027;51.030;13.812;2023-01-31T09:15:44;100519.91;;;4.57;69.09
21730;BME280;11027;51.030;13.812;2023-01-31T09:18:09;100537.06;;;4.56;68.92
21730;BME280;11027;51.030;13.812;2023-01-31T09:20:35;100526.28;;;4.56;68.79
21730;BME280;11027;51.030;13.812;2023-01-31T09:23:00;100542.47;;;4.56;68.37
21730;BME280;11027;51.030;13.812;2023-01-31T09:25:25;100526.81;;;4.50;68.65
21730;BME280;11027;51.030;13.812;2023-01-31T09:27:51;100523.88;;;4.53;69.04
21730;BME280;11027;51.030;13.812;2023-01-31T09:30:17;100522.38;;;4.60;68.98
21730;BME280;11027;51.030;13.812;2023-01-31T09:32:42;100518.72;;;4.71;68.83
21730;BME280;11027;51.030;13.812;2023-01-31T09:35:08;100528.97;;;4.77;67.19
21730;BME280;11027;51.030;13.812;2023-01-31T09:37:34;100513.81;;;4.86;67.83
21730;BME280;11027;51.030;13.812;2023-01-31T09:39:59;100534.19;;;5.00;67.41
21730;BME280;11027;51.030;13.812;2023-01-31T09:45:05;100504.41;;;5.11;66.21
21730;BME280;11027;51.030;13.812;2023-01-31T09:47:40;100514.06;;;5.14;66.15
21730;BME280;11027;51.030;13.812;2023-01-31T09:50:20;100497.13;;;5.12;66.07
21730;BME280;11027;51.030;13.812;2023-01-31T09:52:48;100502.00;;;5.18;66.27
21730;BME280;11027;51.030;13.812;2023-01-31T09:55:16;100495.47;;;5.30;66.52
21730;BME280;11027;51.030;13.812;2023-01-31T09:58:00;100509.00;;;5.30;65.83
21730;BME280;11027;51.030;13.812;2023-01-31T10:01:01;100475.41;;;5.23;65.85
21730;BME280;11027;51.030;13.812;2023-01-31T10:08:39;100492.50;;;5.33;66.22
21730;BME280;11027;51.030;13.812;2023-01-31T10:11:17;100484.84;;;5.38;66.00
21730;BME280;11027;51.030;13.812;2023-01-31T10:13:51;100471.91;;;5.52;66.19
21730;BME280;11027;51.030;13.812;2023-01-31T10:18:53;100481.16;;;5.59;66.18
21730;BME280;11027;51.030;13.812;2023-01-31T10:21:24;100477.75;;;5.57;65.38
21730;BME280;11027;51.030;13.812;2023-01-31T10:24:08;100494.94;;;5.46;65.62
21730;BME280;11027;51.030;13.812;2023-01-31T10:26:39;100504.03;;;5.35;65.37
21730;BME280;11027;51.030;13.812;2023-01-31T10:29:23;100473.75;;;5.32;65.44
21730;BME280;11027;51.030;13.812;2023-01-31T10:31:57;100466.94;;;5.37;65.82
21730;BME280;11027;51.030;13.812;2023-01-31T10:34:29;100465.22;;;5.46;65.48
21730;BME280;11027;51.030;13.812;2023-01-31T10:37:13;100475.03;;;5.47;64.64
21730;BME280;11027;51.030;13.812;2023-01-31T10:39:43;100472.06;;;5.50;64.91
21730;BME280;11027;51.030;13.812;2023-01-31T10:42:19;100463.09;;;5.50;63.67
21730;BME280;11027;51.030;13.812;2023-01-31T10:44:53;100462.38;;;5.48;63.71
21730;BME280;11027;51.030;13.812;2023-01-31T10:47:21;100464.38;;;5.46;63.80
21730;BME280;11027;51.030;13.812;2023-01-31T10:49:49;100438.47;;;5.53;63.78
21730;BME280;11027;51.030;13.812;2023-01-31T10:57:41;100430.81;;;5.58;62.86
21730;BME280;11027;51.030;13.812;2023-01-31T11:00:18;100424.25;;;5.51;62.99
21730;BME280;11027;51.030;13.812;2023-01-31T11:02:44;100416.00;;;5.52;63.15
21730;BME280;11027;51.030;13.812;2023-01-31T11:05:15;100431.66;;;5.49;62.70
21730;BME280;11027;51.030;13.812;2023-01-31T11:07:42;100439.03;;;5.47;62.27
21730;BME280;11027;51.030;13.812;2023-01-31T11:10:28;100437.03;;;5.39;62.53
21730;BME280;11027;51.030;13.812;2023-01-31T11:12:58;100421.97;;;5.36;62.78
21730;BME280;11027;51.030;13.812;2023-01-31T11:15:28;100420.81;;;5.39;63.22
21730;BME280;11027;51.030;13.812;2023-01-31T11:17:58;100399.06;;;5.40;62.91
21730;BME280;11027;51.030;13.812;2023-01-31T11:20:29;100397.81;;;5.45;63.17
21730;BME280;11027;51.030;13.812;2023-01-31T11:22:57;100394.25;;;5.54;63.14
21730;BME280;11027;51.030;13.812;2023-01-31T11:25:24;100422.25;;;5.53;62.43
21730;BME280;11027;51.030;13.812;2023-01-31T11:27:55;100375.91;;;5.48;62.56
21730;BME280;11027;51.030;13.812;2023-01-31T11:30:26;100387.84;;;5.45;62.87
21730;BME280;11027;51.030;13.812;2023-01-31T11:32:53;100391.41;;;5.46;62.60
21730;BME280;11027;51.030;13.812;2023-01-31T11:37:56;100398.38;;;5.58;62.27
21730;BME280;11027;51.030;13.812;2023-01-31T11:40:35;100366.94;;;5.57;62.16
21730;BME280;11027;51.030;13.812;2023-01-31T11:43:04;100363.94;;;5.60;62.11
21730;BME280;11027;51.030;13.812;2023-01-31T11:45:37;100353.28;;;5.68;62.05
21730;BME280;11027;51.030;13.812;2023-01-31T11:48:23;100345.28;;;5.76;61.70
21730;BME280;11027;51.030;13.812;2023-01-31T11:50:56;100349.16;;;5.74;61.26
21730;BME280;11027;51.030;13.812;2023-01-31T11:53:29;100353.53;;;5.85;61.50
21730;BME280;11027;51.030;13.812;2023-01-31T11:56:08;100342.81;;;5.93;61.26
21730;BME280;11027;51.030;13.812;2023-01-31T11:58:38;100346.84;;;5.98;61.06
21730;BME280;11027;51.030;13.812;2023-01-31T12:01:16;100347.66;;;6.09;60.96
21730;BME280;11027;51.030;13.812;2023-01-31T12:03:52;100341.09;;;6.11;60.86
21730;BME280;11027;51.030;13.812;2023-01-31T12:06:36;100316.84;;;6.19;60.66
21730;BME280;11027;51.030;13.812;2023-01-31T12:09:20;100315.16;;;6.18;60.41
21730;BME280;11027;51.030;13.812;2023-01-31T12:12:00;100286.97;;;6.21;60.15
21730;BME280;11027;51.030;13.812;2023-01-31T12:14:38;100295.75;;;6.33;60.11
21730;BME280;11027;51.030;13.812;2023-01-31T12:17:06;100296.22;;;6.46;59.78
21730;BME280;11027;51.030;13.812;2023-01-31T12:19:46;100298.22;;;6.44;59.85
21730;BME280;11027;51.030;13.812;2023-01-31T12:22:29;100286.31;;;6.37;60.12
21730;BME280;11027;51.030;13.812;2023-01-31T12:25:18;100295.75;;;6.33;60.15
21730;BME280;11027;51.030;13.812;2023-01-31T12:33:23;100278.13;;;6.19;60.41
21730;BME280;11027;51.030;13.812;2023-01-31T12:36:10;100273.28;;;6.23;60.67
21730;BME280;11027;51.030;13.812;2023-01-31T12:41:32;100259.31;;;6.27;61.19
21730;BME280;11027;51.030;13.812;2023-01-31T12:44:24;100266.97;;;6.32;61.15
21730;BME280;11027;51.030;13.812;2023-01-31T12:50:23;100257.66;;;6.16;60.95
21730;BME280;11027;51.030;13.812;2023-01-31T12:55:40;100263.94;;;6.07;61.95
21730;BME280;11027;51.030;13.812;2023-01-31T12:58:22;100236.66;;;6.00;63.33
21730;BME280;11027;51.030;13.812;2023-01-31T13:00:57;100237.50;;;5.91;64.41
21730;BME280;11027;51.030;13.812;2023-01-31T13:03:43;100221.03;;;5.85;64.97
21730;BME280;11027;51.030;13.812;2023-01-31T13:06:36;100227.84;;;5.89;64.99
21730;BME280;11027;51.030;13.812;2023-01-31T13:09:20;100220.44;;;5.91;65.34
21730;BME280;11027;51.030;13.812;2023-01-31T13:11:55;100209.19;;;5.86;65.23
21730;BME280;11027;51.030;13.812;2023-01-31T13:14:25;100206.50;;;5.86;65.53
21730;BME280;11027;51.030;13.812;2023-01-31T13:16:56;100200.84;;;5.79;65.66
21730;BME280;11027;51.030;13.812;2023-01-31T13:19:47;100224.09;;;5.72;65.88
21730;BME280;11027;51.030;13.812;2023-01-31T13:22:28;100211.09;;;5.75;65.72
21730;BME280;11027;51.030;13.812;2023-01-31T13:25:20;100200.75;;;5.71;66.23
21730;BME280;11027;51.030;13.812;2023-01-31T13:27:56;100202.88;;;5.67;66.53
21730;BME280;11027;51.030;13.812;2023-01-31T13:30:34;100194.66;;;5.59;67.18
21730;BME280;11027;51.030;13.812;2023-01-31T13:35:53;100192.44;;;5.45;68.71
21730;BME280;11027;51.030;13.812;2023-01-31T13:38:24;100169.97;;;5.44;68.93
21730;BME280;11027;51.030;13.812;2023-01-31T13:40:53;100154.63;;;5.35;69.57
21730;BME280;11027;51.030;13.812;2023-01-31T13:43:19;100163.19;;;5.30;70.20
21730;BME280;11027;51.030;13.812;2023-01-31T13:45:55;100158.97;;;5.18;70.69
21730;BME280;11027;51.030;13.812;2023-01-31T13:48:41;100161.66;;;5.18;70.66
21730;BME280;11027;51.030;13.812;2023-01-31T13:51:13;100153.56;;;5.18;70.90
21730;BME280;11027;51.030;13.812;2023-01-31T13:53:47;100139.03;;;5.19;70.83
21730;BME280;11027;51.030;13.812;2023-01-31T13:56:20;100134.34;;;5.21;70.81
21730;BME280;11027;51.030;13.812;2023-01-31T13:58:49;100123.84;;;5.18;71.23
21730;BME280;11027;51.030;13.812;2023-01-31T14:01:20;100139.91;;;5.19;71.31
21730;BME280;11027;51.030;13.812;2023-01-31T14:11:48;100138.06;;;5.20;71.77